Time;durP1;ratioP1;P1;durP2;ratioP2;P2;SDS_P1;SDS_P2;PMS_P1;PMS_P2;Temp;Humidity;BMP_temperature;BMP_pressure;BME280_temperature;BME280_humidity;BME280_pressure;Samples;Min_cycle;Max_cycle;Signal;HPM_P1;HPM_P2
2022/10/28 00:01:10;;;;;;;477.17;184.37;;;12.60;99.90;;;;;;5129165;27;20223;-51
2022/10/28 00:03:39;;;;;;;303.87;107.40;;;12.60;99.90;;;;;;5129166;27;20609;-52
2022/10/28 00:06:10;;;;;;;429.40;169.47;;;12.60;99.90;;;;;;5130374;27;20231;-52
2022/10/28 00:08:39;;;;;;;238.57;57.37;;;12.60;99.90;;;;;;5130096;27;20258;-52
2022/10/28 00:11:09;;;;;;;684.17;295.13;;;12.60;99.90;;;;;;5129738;27;20282;-51
2022/10/28 00:13:38;;;;;;;333.63;107.23;;;12.60;99.90;;;;;;5129215;27;20230;-51
2022/10/28 00:16:10;;;;;;;506.80;219.60;;;12.60;99.90;;;;;;5129959;27;20203;-52
2022/10/28 00:18:39;;;;;;;385.90;168.17;;;12.60;99.90;;;;;;5127145;28;20759;-52
2022/10/28 00:21:11;;;;;;;606.83;184.07;;;12.70;99.90;;;;;;5129177;27;20231;-50
2022/10/28 00:23:40;;;;;;;827.93;309.67;;;12.70;99.90;;;;;;5128992;27;20245;-51
2022/10/28 00:26:09;;;;;;;326.90;111.90;;;12.70;99.90;;;;;;5129135;27;20289;-51
2022/10/28 00:28:41;;;;;;;355.37;72.93;;;12.80;99.90;;;;;;5129416;27;20676;-51
2022/10/28 00:31:12;;;;;;;761.60;256.80;;;12.80;99.90;;;;;;5129288;27;20958;-51
2022/10/28 00:33:41;;;;;;;870.87;285.37;;;12.80;99.90;;;;;;5130152;27;20230;-51
2022/10/28 00:36:14;;;;;;;809.57;287.43;;;12.90;99.90;;;;;;5132951;27;20290;-49
2022/10/28 00:38:43;;;;;;;591.67;207.37;;;12.80;99.90;;;;;;5133277;27;20329;-51
2022/10/28 00:41:14;;;;;;;543.87;175.70;;;12.90;99.90;;;;;;5132217;27;20244;-50
2022/10/28 00:43:43;;;;;;;724.43;263.23;;;12.90;99.90;;;;;;5132614;27;20262;-52
2022/10/28 00:46:19;;;;;;;1173.97;430.77;;;12.90;99.90;;;;;;5132829;27;20862;-51
2022/10/28 00:48:50;;;;;;;833.73;315.00;;;12.90;99.90;;;;;;5132339;27;20241;-52
2022/10/28 00:51:22;;;;;;;1084.80;452.37;;;12.90;99.90;;;;;;5133209;27;20210;-52
2022/10/28 00:53:53;;;;;;;533.60;186.67;;;12.80;99.90;;;;;;5132635;27;20278;-52
2022/10/28 00:56:22;;;;;;;1193.00;492.93;;;12.80;99.90;;;;;;5133026;27;20289;-51
2022/10/28 00:58:51;;;;;;;1300.77;573.07;;;12.80;99.90;;;;;;5131773;27;20245;-51
2022/10/28 01:01:21;;;;;;;855.70;299.60;;;12.70;99.90;;;;;;5132452;27;20203;-51
2022/10/28 01:03:49;;;;;;;427.43;119.00;;;12.80;99.90;;;;;;5132037;27;20223;-51
2022/10/28 01:06:17;;;;;;;1019.40;424.97;;;12.70;99.90;;;;;;5133059;27;20298;-51
2022/10/28 01:08:45;;;;;;;721.17;212.57;;;12.70;99.90;;;;;;5132225;27;20311;-51
2022/10/28 01:11:34;;;;;;;516.57;147.33;;;12.70;99.90;;;;;;5132046;27;20638;-52
2022/10/28 01:14:16;;;;;;;492.33;165.03;;;12.70;99.90;;;;;;5131482;27;20283;-50
2022/10/28 01:16:57;;;;;;;422.40;145.77;;;12.70;99.90;;;;;;5132429;27;20211;-52
2022/10/28 01:19:50;;;;;;;209.97;57.57;;;12.70;99.90;;;;;;5132141;27;20310;-52
2022/10/28 01:22:23;;;;;;;377.67;174.87;;;12.70;99.90;;;;;;5131205;27;20652;-51
2022/10/28 01:25:11;;;;;;;714.50;283.83;;;12.60;99.90;;;;;;5132259;27;20202;-49
2022/10/28 01:28:08;;;;;;;321.13;138.80;;;12.60;99.90;;;;;;5130972;27;20281;-51
2022/10/28 01:30:59;;;;;;;598.80;257.67;;;12.50;99.90;;;;;;5131643;27;20278;-50
2022/10/28 01:33:34;;;;;;;565.33;213.40;;;12.50;99.90;;;;;;5116882;27;20203;-52
2022/10/28 01:36:08;;;;;;;736.50;373.70;;;12.50;99.90;;;;;;5131816;27;20237;-51
2022/10/28 01:38:47;;;;;;;680.13;298.67;;;12.40;99.90;;;;;;5130967;27;20309;-51
2022/10/28 01:41:18;;;;;;;858.30;326.67;;;12.40;99.90;;;;;;5131913;27;20286;-51
2022/10/28 01:43:52;;;;;;;651.73;254.87;;;12.40;99.90;;;;;;5130850;27;20258;-51
2022/10/28 01:46:28;;;;;;;302.10;107.37;;;12.40;99.90;;;;;;5129731;27;20728;-50
2022/10/28 01:49:00;;;;;;;442.63;208.17;;;12.40;99.90;;;;;;5130714;27;20218;-52
2022/10/28 01:51:32;;;;;;;439.83;176.43;;;12.30;99.90;;;;;;5131876;27;20203;-52
2022/10/28 01:54:03;;;;;;;364.97;111.13;;;12.40;99.90;;;;;;5131210;27;20285;-51
2022/10/28 01:56:35;;;;;;;398.13;158.77;;;12.40;99.90;;;;;;5130573;27;20234;-51
2022/10/28 01:59:07;;;;;;;752.93;314.70;;;12.40;99.90;;;;;;5130887;27;20254;-51
2022/10/28 02:01:37;;;;;;;239.20;96.33;;;12.40;99.90;;;;;;5131665;27;20238;-51
2022/10/28 02:04:05;;;;;;;380.43;162.17;;;12.40;99.90;;;;;;5130887;27;20710;-51
2022/10/28 02:06:34;;;;;;;475.90;143.27;;;12.30;99.90;;;;;;5131532;27;20234;-52
2022/10/28 02:09:22;;;;;;;492.80;166.00;;;12.30;99.90;;;;;;5130452;27;20855;-51
2022/10/28 02:12:15;;;;;;;475.13;169.17;;;12.40;99.90;;;;;;5134163;27;20326;-52
2022/10/28 02:15:17;;;;;;;132.10;33.97;;;12.40;99.90;;;;;;5128497;27;20238;-51
2022/10/28 02:18:01;;;;;;;1074.23;297.37;;;12.40;99.90;;;;;;5129731;27;20712;-51
2022/10/28 02:20:37;;;;;;;561.23;211.67;;;12.50;99.90;;;;;;5131480;27;20253;-51
2022/10/28 02:23:17;;;;;;;344.30;97.87;;;12.50;99.90;;;;;;5129746;27;20240;-51
2022/10/28 02:25:51;;;;;;;583.63;120.63;;;12.50;99.90;;;;;;5130782;27;20701;-51
2022/10/28 02:28:24;;;;;;;903.80;361.77;;;12.60;99.90;;;;;;5130107;27;20325;-50
2022/10/28 02:30:59;;;;;;;1047.27;264.23;;;12.60;99.90;;;;;;5131307;27;20238;-51
2022/10/28 02:33:32;;;;;;;592.50;185.77;;;12.60;99.90;;;;;;5115918;27;20206;-51
2022/10/28 02:36:04;;;;;;;648.30;228.10;;;12.60;99.90;;;;;;5129525;27;20287;-52
2022/10/28 02:38:35;;;;;;;603.20;195.27;;;12.70;99.90;;;;;;5129339;27;20305;-52
2022/10/28 02:41:08;;;;;;;479.10;156.37;;;12.80;99.90;;;;;;5130807;27;20758;-52
2022/10/28 02:43:38;;;;;;;499.87;141.07;;;12.90;99.90;;;;;;5128433;27;20307;-52
2022/10/28 02:46:08;;;;;;;537.10;147.97;;;12.90;99.90;;;;;;5131394;27;20210;-52
2022/10/28 02:48:42;;;;;;;865.60;312.43;;;13.00;99.90;;;;;;5135546;27;20248;-52
2022/10/28 02:51:13;;;;;;;608.13;183.33;;;13.10;99.90;;;;;;5147549;27;20226;-51
2022/10/28 02:53:50;;;;;;;910.70;302.07;;;13.10;99.90;;;;;;5141083;27;20202;-51
2022/10/28 02:56:21;;;;;;;980.93;375.17;;;13.20;99.90;;;;;;5150478;27;20208;-52
2022/10/28 02:58:49;;;;;;;974.83;354.40;;;13.10;99.90;;;;;;5150017;27;20329;-51
2022/10/28 03:01:17;;;;;;;515.10;183.17;;;13.10;99.90;;;;;;5136261;27;20244;-52
2022/10/28 03:03:47;;;;;;;838.70;287.33;;;13.10;99.90;;;;;;5150286;27;20715;-51
2022/10/28 03:06:15;;;;;;;808.50;385.63;;;13.00;99.90;;;;;;5150766;27;20264;-52
2022/10/28 03:08:43;;;;;;;688.53;249.20;;;13.00;99.90;;;;;;5150563;27;20706;-52
2022/10/28 03:11:11;;;;;;;760.93;228.87;;;12.90;99.90;;;;;;5150521;27;20302;-51
2022/10/28 03:13:39;;;;;;;751.77;232.70;;;12.90;99.90;;;;;;5150009;27;20285;-51
2022/10/28 03:16:08;;;;;;;374.93;110.07;;;13.00;99.90;;;;;;5143861;27;20238;-51
2022/10/28 03:18:36;;;;;;;757.63;250.47;;;13.10;99.90;;;;;;5134492;27;20235;-52
2022/10/28 03:21:05;;;;;;;564.77;127.97;;;13.20;99.90;;;;;;5149313;27;20233;-51
2022/10/28 03:23:34;;;;;;;343.90;98.00;;;13.30;99.90;;;;;;5147712;27;20222;-52
2022/10/28 03:26:02;;;;;;;1098.53;271.50;;;13.30;99.90;;;;;;5150476;27;20732;-52
2022/10/28 03:28:30;;;;;;;855.20;288.63;;;13.30;99.90;;;;;;5142126;27;20291;-51
2022/10/28 03:30:58;;;;;;;886.77;323.63;;;13.30;99.90;;;;;;5147892;27;20257;-52
2022/10/28 03:33:26;;;;;;;942.27;359.70;;;13.20;99.90;;;;;;5144847;27;20645;-51
2022/10/28 03:35:54;;;;;;;1034.37;400.47;;;13.30;99.90;;;;;;5150794;27;20233;-51
2022/10/28 03:38:24;;;;;;;1221.67;451.13;;;13.30;99.90;;;;;;5150151;27;20268;-52
2022/10/28 03:40:52;;;;;;;346.43;114.70;;;13.30;99.90;;;;;;5150653;27;20202;-51
2022/10/28 03:43:20;;;;;;;315.03;83.63;;;13.30;99.90;;;;;;5150456;27;20208;-51
2022/10/28 03:45:48;;;;;;;714.83;285.37;;;13.40;99.90;;;;;;5150666;27;20728;-52
2022/10/28 03:48:16;;;;;;;1158.00;387.10;;;13.40;99.90;;;;;;5149649;27;20308;-51
2022/10/28 03:50:44;;;;;;;867.37;289.90;;;13.40;99.90;;;;;;5148206;27;20293;-52
2022/10/28 03:53:12;;;;;;;794.77;314.90;;;13.40;99.90;;;;;;5137621;27;20288;-51
2022/10/28 03:55:42;;;;;;;521.83;171.73;;;13.40;99.90;;;;;;5150110;27;20293;-51
2022/10/28 03:58:10;;;;;;;1112.80;385.50;;;13.40;99.90;;;;;;5123763;27;20305;-51
2022/10/28 04:00:38;;;;;;;1031.67;322.40;;;13.40;99.90;;;;;;5142780;27;20203;-51
2022/10/28 04:03:06;;;;;;;817.33;235.00;;;13.40;99.90;;;;;;5120611;27;20233;-52
2022/10/28 04:05:34;;;;;;;440.10;158.17;;;13.40;99.90;;;;;;5150453;27;20265;-52
2022/10/28 04:08:02;;;;;;;1019.73;385.07;;;13.40;99.90;;;;;;5149910;27;20303;-52
2022/10/28 04:10:30;;;;;;;1370.90;454.67;;;13.40;99.90;;;;;;5154320;27;20294;-51
2022/10/28 04:13:01;;;;;;;751.20;263.90;;;13.50;99.90;;;;;;5154096;27;20202;-51
2022/10/28 04:15:29;;;;;;;719.63;318.60;;;13.50;99.90;;;;;;5153845;27;20230;-52
2022/10/28 04:17:57;;;;;;;656.10;227.87;;;13.50;99.90;;;;;;5152993;27;20313;-51
2022/10/28 04:20:26;;;;;;;789.40;226.87;;;13.50;99.90;;;;;;5154070;27;20706;-52
2022/10/28 04:22:54;;;;;;;683.17;216.83;;;13.50;99.90;;;;;;5151455;27;20205;-51
2022/10/28 04:25:26;;;;;;;1038.27;395.17;;;13.50;99.90;;;;;;5153981;27;20702;-51
2022/10/28 04:27:54;;;;;;;694.63;225.07;;;13.50;99.90;;;;;;5147667;27;20643;-52
2022/10/28 04:30:24;;;;;;;538.83;138.03;;;13.50;99.90;;;;;;5126495;27;20240;-51
2022/10/28 04:32:52;;;;;;;1189.77;408.20;;;13.50;99.90;;;;;;5152819;27;20244;-50
2022/10/28 04:35:20;;;;;;;694.83;248.93;;;13.50;99.90;;;;;;5152046;27;20226;-50
2022/10/28 04:37:50;;;;;;;556.87;166.33;;;13.40;99.90;;;;;;5148106;27;20279;-50
2022/10/28 04:40:19;;;;;;;920.27;268.77;;;13.40;99.90;;;;;;5155375;27;20254;-50
2022/10/28 04:42:47;;;;;;;866.20;300.50;;;13.40;99.90;;;;;;5145749;27;20315;-50
2022/10/28 04:45:15;;;;;;;712.60;196.70;;;13.40;99.90;;;;;;5153972;27;20309;-50
2022/10/28 04:47:45;;;;;;;913.17;347.73;;;13.40;99.90;;;;;;5153958;27;20273;-51
2022/10/28 04:50:13;;;;;;;727.97;229.60;;;13.30;99.90;;;;;;5153603;27;20247;-51
2022/10/28 04:52:41;;;;;;;597.03;225.77;;;13.30;99.90;;;;;;5139265;27;20686;-49
2022/10/28 04:55:09;;;;;;;398.10;123.33;;;13.20;99.90;;;;;;5153804;27;20654;-51
2022/10/28 04:57:37;;;;;;;215.37;68.40;;;13.20;99.90;;;;;;5152240;27;20210;-51
2022/10/28 05:00:06;;;;;;;893.53;318.37;;;13.20;99.90;;;;;;5146538;27;20226;-51
2022/10/28 05:02:34;;;;;;;946.40;337.80;;;13.10;99.90;;;;;;5150831;27;20206;-49
2022/10/28 05:05:04;;;;;;;1001.93;391.33;;;13.10;99.90;;;;;;5140135;27;20309;-50
2022/10/28 05:07:33;;;;;;;656.87;227.80;;;13.10;99.90;;;;;;5144885;27;20259;-51
2022/10/28 05:10:01;;;;;;;1001.23;428.07;;;13.10;99.90;;;;;;5154050;27;20289;-51
2022/10/28 05:12:29;;;;;;;383.13;115.80;;;13.00;99.90;;;;;;5137585;27;20298;-50
2022/10/28 05:14:57;;;;;;;587.57;239.53;;;12.90;99.90;;;;;;5151828;27;20293;-51
2022/10/28 05:17:25;;;;;;;681.93;249.23;;;12.90;99.90;;;;;;5142702;27;20242;-51
2022/10/28 05:19:53;;;;;;;1435.57;547.90;;;12.90;99.90;;;;;;5153435;27;20241;-49
2022/10/28 05:22:22;;;;;;;1171.43;476.07;;;12.80;99.90;;;;;;5150282;27;20206;-51
2022/10/28 05:24:51;;;;;;;658.27;168.43;;;12.80;99.90;;;;;;5142232;27;20317;-49
2022/10/28 05:27:19;;;;;;;1160.07;344.67;;;12.70;99.90;;;;;;5152231;27;20294;-50
2022/10/28 05:29:47;;;;;;;1515.27;352.77;;;12.70;99.90;;;;;;5147812;27;20839;-50
2022/10/28 05:32:15;;;;;;;534.43;181.60;;;12.80;99.90;;;;;;5146234;27;20286;-50
2022/10/28 05:34:43;;;;;;;670.37;228.80;;;12.70;99.90;;;;;;5141799;27;20290;-51
2022/10/28 05:37:11;;;;;;;197.40;78.33;;;12.80;99.90;;;;;;5153065;27;20202;-51
2022/10/28 05:39:41;;;;;;;324.80;118.27;;;12.80;99.90;;;;;;5132003;27;20301;-50
2022/10/28 05:42:09;;;;;;;424.40;109.27;;;12.90;99.90;;;;;;5123597;27;20235;-49
2022/10/28 05:44:37;;;;;;;548.83;174.37;;;12.90;99.90;;;;;;5126314;27;20330;-51
2022/10/28 05:47:05;;;;;;;282.47;110.30;;;13.00;99.90;;;;;;5149995;27;20743;-50
2022/10/28 05:49:33;;;;;;;417.13;162.53;;;12.90;99.90;;;;;;5140973;27;20258;-50
2022/10/28 05:52:01;;;;;;;244.40;85.77;;;12.90;99.90;;;;;;5135021;27;20271;-50
2022/10/28 05:54:29;;;;;;;765.67;266.57;;;12.90;99.90;;;;;;5138336;27;20661;-50
2022/10/28 05:56:59;;;;;;;1028.13;337.30;;;12.90;99.90;;;;;;5131142;27;20352;-50
2022/10/28 05:59:27;;;;;;;593.60;193.90;;;12.90;99.90;;;;;;5149408;27;20274;-51
2022/10/28 06:01:55;;;;;;;773.10;221.17;;;12.90;99.90;;;;;;5141456;27;20308;-50
2022/10/28 06:04:23;;;;;;;767.83;252.73;;;12.90;99.90;;;;;;5148602;27;20202;-50
2022/10/28 06:06:54;;;;;;;554.30;169.87;;;12.90;99.90;;;;;;5151346;27;20756;-50
2022/10/28 06:09:22;;;;;;;556.93;182.00;;;12.90;99.90;;;;;;5150108;27;20257;-50
2022/10/28 06:11:50;;;;;;;352.70;107.97;;;12.80;99.90;;;;;;5138739;27;20241;-50
2022/10/28 06:14:20;;;;;;;927.20;274.77;;;12.80;99.90;;;;;;5142337;27;20322;-51
2022/10/28 06:16:48;;;;;;;522.07;156.57;;;12.80;99.90;;;;;;5151577;27;20194;-50
2022/10/28 06:19:16;;;;;;;755.27;271.93;;;12.80;99.90;;;;;;5149606;27;20265;-49
2022/10/28 06:21:45;;;;;;;260.27;77.17;;;12.80;99.90;;;;;;5148374;27;20289;-50
2022/10/28 06:24:13;;;;;;;299.40;93.17;;;12.80;99.90;;;;;;5143037;27;20288;-51
2022/10/28 06:26:41;;;;;;;753.90;310.20;;;12.80;99.90;;;;;;5148147;27;20214;-49
2022/10/28 06:29:10;;;;;;;554.57;216.47;;;12.80;99.90;;;;;;5146016;27;20317;-50
2022/10/28 06:31:40;;;;;;;916.87;326.73;;;12.70;99.90;;;;;;5150605;27;20263;-50
2022/10/28 06:34:09;;;;;;;620.23;217.50;;;12.60;99.90;;;;;;5150178;27;20233;-51
2022/10/28 06:36:37;;;;;;;612.77;332.87;;;12.60;99.90;;;;;;5147519;27;20289;-51
2022/10/28 06:39:06;;;;;;;444.00;135.30;;;12.60;99.90;;;;;;5151620;27;20270;-53
2022/10/28 06:41:34;;;;;;;787.43;319.10;;;12.60;99.90;;;;;;5146298;27;20213;-50
2022/10/28 06:44:02;;;;;;;889.73;303.03;;;12.60;99.90;;;;;;5151326;27;20309;-50
2022/10/28 06:46:31;;;;;;;618.77;272.23;;;12.60;99.90;;;;;;5119100;27;20258;-51
2022/10/28 06:49:02;;;;;;;1389.73;527.27;;;12.60;99.90;;;;;;5129908;27;20261;-51
2022/10/28 06:51:30;;;;;;;819.50;367.20;;;12.70;99.90;;;;;;5130584;27;20255;-50
2022/10/28 06:53:59;;;;;;;1462.37;626.17;;;12.80;99.90;;;;;;5144895;27;20271;-51
2022/10/28 06:56:27;;;;;;;1401.83;603.97;;;12.90;99.90;;;;;;5151336;27;20207;-50
2022/10/28 06:58:55;;;;;;;1310.70;448.73;;;13.00;99.90;;;;;;5150506;27;20218;-51
2022/10/28 07:01:23;;;;;;;1204.97;505.77;;;13.00;99.90;;;;;;5150939;27;20229;-50
2022/10/28 07:03:51;;;;;;;1218.70;528.70;;;13.10;99.90;;;;;;5150300;27;20210;-51
2022/10/28 07:06:21;;;;;;;1412.67;466.87;;;13.10;99.90;;;;;;5150889;27;20312;-50
2022/10/28 07:08:49;;;;;;;1221.80;464.27;;;13.20;99.90;;;;;;5140320;27;20607;-49
2022/10/28 07:11:17;;;;;;;1549.50;586.83;;;13.20;99.90;;;;;;5145371;27;20944;-50
2022/10/28 07:13:45;;;;;;;1732.73;672.63;;;13.10;99.90;;;;;;5143962;27;20202;-50
2022/10/28 07:16:16;;;;;;;804.33;277.53;;;13.10;99.90;;;;;;5148434;27;20206;-51
2022/10/28 07:18:44;;;;;;;1394.40;668.77;;;13.10;99.90;;;;;;5129160;27;20264;-50
2022/10/28 07:21:13;;;;;;;1123.77;607.17;;;13.10;99.90;;;;;;5124742;27;20209;-50
2022/10/28 07:23:42;;;;;;;1323.03;574.47;;;13.10;99.90;;;;;;5128648;27;20675;-51
2022/10/28 07:26:10;;;;;;;925.43;353.30;;;13.10;99.90;;;;;;5129862;27;20218;-50
2022/10/28 07:28:38;;;;;;;1228.10;424.10;;;13.10;99.90;;;;;;5129173;27;20245;-50
2022/10/28 07:31:07;;;;;;;1130.43;447.53;;;13.10;99.90;;;;;;5130100;28;20829;-50
2022/10/28 07:33:35;;;;;;;694.83;197.43;;;13.20;99.90;;;;;;5127633;27;20278;-50
2022/10/28 07:36:04;;;;;;;832.53;349.63;;;13.40;99.90;;;;;;5129966;27;20326;-49
2022/10/28 07:38:33;;;;;;;821.63;309.90;;;13.50;99.90;;;;;;5129387;28;20274;-49
2022/10/28 07:41:06;;;;;;;1024.03;379.70;;;13.60;99.90;;;;;;5129664;28;20282;-50
2022/10/28 07:43:36;;;;;;;1626.03;662.37;;;13.70;99.90;;;;;;5132760;27;20223;-50
2022/10/28 07:46:05;;;;;;;1711.33;662.00;;;13.80;99.90;;;;;;5131079;27;20583;-51
2022/10/28 07:48:33;;;;;;;1645.57;681.97;;;14.00;99.90;;;;;;5123387;27;20265;-50
2022/10/28 07:51:02;;;;;;;1101.40;318.42;;;14.10;99.90;;;;;;5133997;27;20237;-49
2022/10/28 07:53:31;;;;;;;1098.25;288.02;;;14.30;99.90;;;;;;5137125;27;20203;-50
2022/10/28 07:56:01;;;;;;;1626.28;580.83;;;14.40;99.90;;;;;;5154266;27;20780;-50
2022/10/28 07:58:31;;;;;;;862.78;223.00;;;14.40;99.90;;;;;;5155711;27;20316;-50
2022/10/28 08:01:02;;;;;;;1248.95;417.55;;;14.50;99.90;;;;;;5156496;27;21019;-51
2022/10/28 08:03:31;;;;;;;1655.90;589.70;;;14.60;99.90;;;;;;5143424;27;20582;-51
2022/10/28 08:06:08;;;;;;;1696.80;634.47;;;14.70;99.90;;;;;;5120984;27;20215;-51
2022/10/28 08:08:37;;;;;;;1569.90;540.17;;;14.90;99.90;;;;;;5133254;27;20661;-51
2022/10/28 08:11:12;;;;;;;1562.15;522.25;;;15.00;99.90;;;;;;5133365;27;20261;-50
2022/10/28 08:13:42;;;;;;;1249.57;523.22;;;15.10;99.90;;;;;;5136747;27;20194;-51
2022/10/28 08:16:10;;;;;;;1522.68;431.85;;;15.20;99.90;;;;;;5131225;27;20286;-51
2022/10/28 08:18:39;;;;;;;1373.07;451.83;;;15.30;99.90;;;;;;5132721;27;20254;-50
2022/10/28 08:21:10;;;;;;;1107.57;332.75;;;15.30;99.90;;;;;;5132777;27;20258;-49
2022/10/28 08:23:40;;;;;;;764.53;234.00;;;15.30;99.90;;;;;;5131303;27;20235;-51
2022/10/28 08:26:08;;;;;;;1066.03;373.58;;;15.30;99.90;;;;;;5131330;27;20219;-50
2022/10/28 08:28:36;;;;;;;1360.55;517.17;;;15.40;99.90;;;;;;5132267;27;20262;-51
2022/10/28 08:31:07;;;;;;;1463.82;470.05;;;15.50;99.90;;;;;;5133341;27;20238;-51
2022/10/28 08:33:37;;;;;;;1321.07;369.38;;;15.50;99.90;;;;;;5131755;27;20577;-51
2022/10/28 08:36:06;;;;;;;842.30;343.85;;;15.60;99.90;;;;;;5132838;27;20231;-51
2022/10/28 08:38:35;;;;;;;1441.63;532.50;;;15.60;99.90;;;;;;5132450;27;20294;-51
2022/10/28 08:41:12;;;;;;;1203.85;437.33;;;15.70;99.90;;;;;;5132990;27;20245;-52
2022/10/28 08:43:53;;;;;;;1596.85;668.95;;;15.80;99.90;;;;;;5132225;27;20617;-52
2022/10/28 08:46:43;;;;;;;1602.93;517.25;;;15.90;99.90;;;;;;5132514;27;20608;-51
2022/10/28 08:49:13;;;;;;;1152.38;460.58;;;16.00;99.90;;;;;;5120337;27;20306;-51
2022/10/28 08:51:48;;;;;;;1350.85;630.78;;;16.00;99.90;;;;;;5133001;27;20211;-52
2022/10/28 08:54:19;;;;;;;1362.93;513.55;;;16.10;99.90;;;;;;5149705;27;20765;-52
2022/10/28 08:56:49;;;;;;;1301.97;485.48;;;16.10;99.90;;;;;;5153599;27;20723;-52
2022/10/28 08:59:21;;;;;;;1198.13;498.70;;;16.20;99.90;;;;;;5153354;27;20271;-52
2022/10/28 09:01:54;;;;;;;1177.50;507.42;;;16.20;99.90;;;;;;5149407;27;20241;-52
2022/10/28 09:04:35;;;;;;;1162.47;505.33;;;16.30;99.90;;;;;;5153335;27;20209;-52
2022/10/28 09:07:04;;;;;;;1468.60;564.97;;;16.30;99.90;;;;;;5153408;27;20230;-52
2022/10/28 09:09:33;;;;;;;1306.00;474.83;;;16.50;99.90;;;;;;5153099;27;20226;-51
2022/10/28 09:12:12;;;;;;;1284.13;530.85;;;16.50;99.90;;;;;;5150660;27;20236;-51
2022/10/28 09:14:53;;;;;;;1324.90;440.63;;;16.60;99.90;;;;;;5140216;27;20245;-51
2022/10/28 09:17:32;;;;;;;1441.93;430.88;;;16.70;99.90;;;;;;5149916;27;20587;-51
2022/10/28 09:20:07;;;;;;;1234.80;486.00;;;16.80;99.90;;;;;;5152053;27;20290;-51
2022/10/28 09:22:43;;;;;;;1412.32;557.80;;;16.90;99.90;;;;;;5150338;27;20216;-51
2022/10/28 09:25:22;;;;;;;1284.88;434.30;;;17.00;99.90;;;;;;5153200;27;20190;-52
2022/10/28 09:28:01;;;;;;;1426.22;588.40;;;17.00;99.90;;;;;;5140435;27;20250;-51
2022/10/28 09:30:36;;;;;;;1768.03;668.45;;;17.00;99.90;;;;;;5126805;27;20220;-51
2022/10/28 09:33:27;;;;;;;1611.07;507.02;;;17.10;99.90;;;;;;5151795;27;20229;-51
2022/10/28 09:35:57;;;;;;;1643.40;609.38;;;17.20;99.90;;;;;;5151725;27;20219;-52
2022/10/28 09:38:28;;;;;;;1520.57;595.03;;;17.30;99.90;;;;;;5149663;27;20706;-52
2022/10/28 09:41:01;;;;;;;1658.13;694.83;;;17.20;99.90;;;;;;5152736;27;20206;-50
2022/10/28 09:43:32;;;;;;;1243.07;570.58;;;17.30;99.90;;;;;;5151513;27;20296;-51
2022/10/28 09:46:06;;;;;;;1383.15;677.42;;;17.30;99.90;;;;;;5152762;27;20252;-52
2022/10/28 09:48:38;;;;;;;1308.20;612.60;;;17.30;99.90;;;;;;5147532;27;20254;-52
2022/10/28 09:51:07;;;;;;;1878.28;650.13;;;17.40;99.90;;;;;;5140565;27;20206;-51
2022/10/28 09:53:42;;;;;;;1246.82;544.58;;;17.60;99.90;;;;;;5143608;27;21084;-52
2022/10/28 09:56:11;;;;;;;1264.25;571.72;;;17.60;99.90;;;;;;5143275;27;20575;-51
2022/10/28 09:58:43;;;;;;;1850.75;697.92;;;17.70;99.90;;;;;;5151341;27;20333;-52
2022/10/28 10:01:11;;;;;;;1748.47;617.65;;;17.90;99.90;;;;;;5151980;27;20317;-51
2022/10/28 10:03:41;;;;;;;1326.30;615.67;;;18.00;99.90;;;;;;5134286;27;20932;-51
2022/10/28 10:06:14;;;;;;;1464.40;657.95;;;18.00;99.90;;;;;;5146210;27;20230;-51
2022/10/28 10:08:43;;;;;;;1305.53;616.30;;;18.10;99.90;;;;;;5152115;27;20258;-52
2022/10/28 10:11:20;;;;;;;1484.25;724.85;;;18.10;99.90;;;;;;5144400;27;20259;-51
2022/10/28 10:13:50;;;;;;;1126.10;601.50;;;18.20;99.90;;;;;;5131307;27;20206;-51
2022/10/28 10:16:23;;;;;;;1256.93;622.50;;;18.20;99.90;;;;;;5133054;27;20234;-51
2022/10/28 10:18:57;;;;;;;1169.32;578.13;;;18.30;99.90;;;;;;5132352;27;20250;-51
2022/10/28 10:21:42;;;;;;;1212.65;618.05;;;18.30;99.90;;;;;;5132011;27;20207;-52
2022/10/28 10:24:24;;;;;;;1721.70;703.75;;;18.30;99.90;;;;;;5122433;27;20195;-51
2022/10/28 10:26:53;;;;;;;1246.75;583.83;;;18.30;99.90;;;;;;5128939;27;20238;-52
2022/10/28 10:29:22;;;;;;;1514.05;660.60;;;18.40;99.90;;;;;;5128266;27;20810;-52
2022/10/28 10:32:15;;;;;;;1329.43;612.72;;;18.40;99.90;;;;;;5129775;27;20284;-51
2022/10/28 10:34:51;;;;;;;1074.45;490.80;;;18.40;99.90;;;;;;5122750;27;20728;-51
2022/10/28 10:37:21;;;;;;;1377.15;674.47;;;18.50;99.90;;;;;;5130367;27;20233;-52
2022/10/28 10:40:02;;;;;;;1367.70;679.42;;;18.50;99.90;;;;;;5130373;27;20288;-52
2022/10/28 10:42:31;;;;;;;1662.90;746.22;;;18.60;99.90;;;;;;5129537;27;20297;-52
2022/10/28 10:45:01;;;;;;;1191.97;635.40;;;18.60;99.90;;;;;;5130318;27;20235;-51
2022/10/28 10:47:29;;;;;;;1525.03;713.40;;;18.70;99.90;;;;;;5130312;27;20230;-52
2022/10/28 10:50:22;;;;;;;1226.82;662.95;;;18.80;99.90;;;;;;5130459;27;20286;-52
2022/10/28 10:52:56;;;;;;;1642.85;742.75;;;18.90;99.90;;;;;;5135328;27;20289;-50
2022/10/28 10:55:33;;;;;;;1240.45;655.30;;;19.00;99.90;;;;;;5151784;27;20202;-51
2022/10/28 10:58:02;;;;;;;1517.68;684.33;;;19.00;99.90;;;;;;5149451;27;20313;-51
2022/10/28 11:00:35;;;;;;;1609.60;690.78;;;19.00;99.90;;;;;;5151681;27;20213;-51
2022/10/28 11:03:05;;;;;;;1366.63;694.25;;;19.00;99.90;;;;;;5140734;27;20822;-51
2022/10/28 11:05:35;;;;;;;1210.15;639.67;;;19.00;99.90;;;;;;5151556;27;20234;-52
2022/10/28 11:08:06;;;;;;;1484.13;671.45;;;18.90;99.90;;;;;;5150386;27;20234;-52
2022/10/28 11:10:35;;;;;;;1321.60;670.10;;;18.90;99.90;;;;;;5150722;27;20209;-52
2022/10/28 11:13:06;;;;;;;1331.65;665.25;;;18.80;99.90;;;;;;5148127;27;20293;-51
2022/10/28 11:15:34;;;;;;;1341.82;662.67;;;18.80;99.90;;;;;;5150812;27;20700;-52
2022/10/28 11:18:04;;;;;;;1268.72;672.38;;;18.70;99.90;;;;;;5149728;27;20312;-51
2022/10/28 11:20:45;;;;;;;1228.75;633.75;;;18.80;99.90;;;;;;5125386;27;20199;-51
2022/10/28 11:23:36;;;;;;;1535.75;707.15;;;18.80;99.90;;;;;;5134733;27;20602;-51
2022/10/28 11:26:09;;;;;;;1301.95;621.15;;;18.80;99.90;;;;;;5150581;27;20241;-51
2022/10/28 11:28:56;;;;;;;1201.55;593.58;;;18.80;99.90;;;;;;5135978;27;20317;-52
2022/10/28 11:31:46;;;;;;;1267.50;652.67;;;18.80;99.90;;;;;;5149991;27;20714;-52
2022/10/28 11:34:29;;;;;;;1259.47;631.15;;;18.80;99.90;;;;;;5150490;27;20655;-51
2022/10/28 11:37:08;;;;;;;1928.30;773.92;;;18.90;99.90;;;;;;5136460;27;20293;-52
2022/10/28 11:39:44;;;;;;;1266.90;588.03;;;19.00;99.90;;;;;;5144478;27;20242;-50
2022/10/28 11:42:23;;;;;;;1110.68;580.92;;;19.00;99.90;;;;;;5149478;27;20236;-51
2022/10/28 11:44:55;;;;;;;1549.78;646.22;;;19.10;99.90;;;;;;5150887;27;20237;-50
2022/10/28 11:47:44;;;;;;;1426.35;684.42;;;19.10;99.90;;;;;;5149224;27;20257;-51
2022/10/28 11:50:28;;;;;;;1470.47;695.92;;;19.10;99.90;;;;;;5132662;27;20278;-51
2022/10/28 11:53:23;;;;;;;1216.38;642.95;;;19.20;99.90;;;;;;5121287;27;20250;-51
2022/10/28 11:55:56;;;;;;;1379.85;747.92;;;19.10;99.90;;;;;;5148289;27;20198;-51
2022/10/28 11:58:33;;;;;;;1366.63;692.88;;;19.20;99.90;;;;;;5138672;27;20295;-52
2022/10/28 12:01:18;;;;;;;1149.80;566.00;;;19.20;99.90;;;;;;5142450;27;20266;-51
2022/10/28 12:04:03;;;;;;;1399.13;656.28;;;19.10;99.90;;;;;;5149581;27;20738;-51
2022/10/28 12:06:50;;;;;;;1347.80;683.20;;;19.10;99.90;;;;;;5150475;27;20293;-51
2022/10/28 12:09:28;;;;;;;1297.13;680.25;;;19.20;99.90;;;;;;5149403;27;20262;-52
2022/10/28 12:12:12;;;;;;;1430.47;682.60;;;19.20;99.90;;;;;;5149259;27;20202;-51
2022/10/28 12:14:49;;;;;;;1378.00;676.22;;;19.20;99.90;;;;;;5150248;27;20229;-51
2022/10/28 12:17:25;;;;;;;1353.32;627.97;;;19.20;99.90;;;;;;5142467;27;20702;-51
2022/10/28 12:19:58;;;;;;;1519.85;663.42;;;19.20;99.90;;;;;;5147185;27;20753;-51
2022/10/28 12:22:30;;;;;;;1488.47;774.25;;;19.20;99.90;;;;;;5147574;27;20293;-52
2022/10/28 12:25:06;;;;;;;1625.25;715.00;;;19.20;99.90;;;;;;5150200;27;20245;-51
2022/10/28 12:27:40;;;;;;;1348.65;651.40;;;19.20;99.90;;;;;;5147261;27;20213;-52